Terminal Aerodrome Forecast
Issued by NWS

Home | Current Version | Previous Version | Text Only | Print | Product List | Glossary On
Versions: 1 2 3 4 5 6 7 8 9 10 11 12 13 14 15 16 17 18 19 20 21 22 23 24 25 26 27 28 29 30 31 32 33 34 35 36
000
FTUS45 KSLC 110250 AAA
TAFOGD
TAF AMD
KOGD 110250Z 1103/1124 17005KT 5SM -RA BR BKN016 OVC040
     FM110600 29006KT 4SM -SHRASN BKN020 BKN030
     FM111000 VRB05KT P6SM VCSH SCT030 BKN050
     FM111600 19007KT P6SM SCT060=

USA.gov is the U.S. government's official web portal to all federal, state and local government web resources and services.